sensor_id;sensor_type;location;lat;lon;timestamp;P1;durP1;ratioP1;P2;durP2;ratioP2
635;SDS011;302;50.206;8.196;2023-05-10T00:01:36;0.82;;;0.57;;
635;SDS011;302;50.206;8.196;2023-05-10T00:04:01;0.80;;;0.60;;
635;SDS011;302;50.206;8.196;2023-05-10T00:06:27;0.80;;;0.60;;
635;SDS011;302;50.206;8.196;2023-05-10T00:08:52;0.90;;;0.50;;
635;SDS011;302;50.206;8.196;2023-05-10T00:11:18;0.85;;;0.60;;
635;SDS011;302;50.206;8.196;2023-05-10T00:13:43;0.82;;;0.52;;
635;SDS011;302;50.206;8.196;2023-05-10T00:16:08;0.90;;;0.60;;
635;SDS011;302;50.206;8.196;2023-05-10T00:18:33;0.82;;;0.60;;
635;SDS011;302;50.206;8.196;2023-05-10T00:20:58;0.90;;;0.63;;
635;SDS011;302;50.206;8.196;2023-05-10T00:23:23;1.23;;;0.60;;
635;SDS011;302;50.206;8.196;2023-05-10T00:25:48;0.80;;;0.60;;
635;SDS011;302;50.206;8.196;2023-05-10T00:28:14;1.00;;;0.70;;
635;SDS011;302;50.206;8.196;2023-05-10T00:30:39;0.87;;;0.60;;
635;SDS011;302;50.206;8.196;2023-05-10T00:33:04;0.90;;;0.60;;
635;SDS011;302;50.206;8.196;2023-05-10T00:35:30;0.90;;;0.70;;
635;SDS011;302;50.206;8.196;2023-05-10T00:37:55;1.10;;;0.70;;
635;SDS011;302;50.206;8.196;2023-05-10T00:40:20;0.90;;;0.60;;
635;SDS011;302;50.206;8.196;2023-05-10T00:42:45;0.80;;;0.60;;
635;SDS011;302;50.206;8.196;2023-05-10T00:45:11;1.00;;;0.83;;
635;SDS011;302;50.206;8.196;2023-05-10T00:47:36;0.90;;;0.60;;
635;SDS011;302;50.206;8.196;2023-05-10T00:50:01;0.93;;;0.70;;
635;SDS011;302;50.206;8.196;2023-05-10T00:52:27;0.90;;;0.60;;
635;SDS011;302;50.206;8.196;2023-05-10T00:54:53;1.20;;;0.93;;
635;SDS011;302;50.206;8.196;2023-05-10T00:57:19;1.20;;;1.05;;
635;SDS011;302;50.206;8.196;2023-05-10T00:59:44;1.50;;;1.40;;
635;SDS011;302;50.206;8.196;2023-05-10T01:02:09;1.60;;;1.40;;
635;SDS011;302;50.206;8.196;2023-05-10T01:04:35;1.00;;;0.80;;
635;SDS011;302;50.206;8.196;2023-05-10T01:07:00;0.90;;;0.73;;
635;SDS011;302;50.206;8.196;2023-05-10T01:09:26;1.30;;;1.00;;
635;SDS011;302;50.206;8.196;2023-05-10T01:11:51;0.93;;;0.80;;
635;SDS011;302;50.206;8.196;2023-05-10T01:14:17;1.30;;;0.87;;
635;SDS011;302;50.206;8.196;2023-05-10T01:16:43;1.25;;;1.02;;
635;SDS011;302;50.206;8.196;2023-05-10T01:19:22;1.07;;;0.70;;
635;SDS011;302;50.206;8.196;2023-05-10T01:21:49;0.90;;;0.80;;
635;SDS011;302;50.206;8.196;2023-05-10T01:31:59;1.30;;;0.80;;
635;SDS011;302;50.206;8.196;2023-05-10T01:34:38;1.23;;;1.13;;
635;SDS011;302;50.206;8.196;2023-05-10T01:37:09;1.30;;;1.00;;
635;SDS011;302;50.206;8.196;2023-05-10T01:39:45;0.90;;;0.65;;
635;SDS011;302;50.206;8.196;2023-05-10T01:42:14;0.80;;;0.60;;
635;SDS011;302;50.206;8.196;2023-05-10T01:44:44;0.95;;;0.70;;
635;SDS011;302;50.206;8.196;2023-05-10T01:47:15;0.90;;;0.80;;
635;SDS011;302;50.206;8.196;2023-05-10T01:49:42;1.00;;;0.80;;
635;SDS011;302;50.206;8.196;2023-05-10T01:52:09;1.00;;;0.70;;
635;SDS011;302;50.206;8.196;2023-05-10T01:54:35;0.90;;;0.70;;
635;SDS011;302;50.206;8.196;2023-05-10T01:57:03;0.90;;;0.70;;
635;SDS011;302;50.206;8.196;2023-05-10T01:59:30;0.90;;;0.60;;
635;SDS011;302;50.206;8.196;2023-05-10T02:02:01;0.90;;;0.80;;
635;SDS011;302;50.206;8.196;2023-05-10T02:04:27;1.00;;;0.80;;
635;SDS011;302;50.206;8.196;2023-05-10T02:06:53;1.20;;;0.73;;
635;SDS011;302;50.206;8.196;2023-05-10T02:09:18;1.00;;;0.70;;
635;SDS011;302;50.206;8.196;2023-05-10T02:11:45;0.90;;;0.70;;
635;SDS011;302;50.206;8.196;2023-05-10T02:14:11;0.93;;;0.70;;
635;SDS011;302;50.206;8.196;2023-05-10T02:16:37;0.80;;;0.53;;
635;SDS011;302;50.206;8.196;2023-05-10T02:19:03;1.00;;;0.82;;
635;SDS011;302;50.206;8.196;2023-05-10T02:21:29;1.10;;;0.70;;
635;SDS011;302;50.206;8.196;2023-05-10T02:23:55;1.00;;;0.70;;
635;SDS011;302;50.206;8.196;2023-05-10T02:26:21;1.00;;;0.90;;
635;SDS011;302;50.206;8.196;2023-05-10T02:28:48;0.90;;;0.80;;
635;SDS011;302;50.206;8.196;2023-05-10T02:31:14;0.93;;;0.73;;
635;SDS011;302;50.206;8.196;2023-05-10T02:33:39;0.90;;;0.80;;
635;SDS011;302;50.206;8.196;2023-05-10T02:36:06;1.00;;;0.90;;
635;SDS011;302;50.206;8.196;2023-05-10T02:38:32;0.95;;;0.82;;
635;SDS011;302;50.206;8.196;2023-05-10T02:40:58;0.97;;;0.70;;
635;SDS011;302;50.206;8.196;2023-05-10T02:43:23;1.03;;;0.87;;
635;SDS011;302;50.206;8.196;2023-05-10T02:45:49;1.00;;;0.90;;
635;SDS011;302;50.206;8.196;2023-05-10T02:48:15;1.10;;;0.90;;
635;SDS011;302;50.206;8.196;2023-05-10T02:50:42;1.00;;;0.70;;
635;SDS011;302;50.206;8.196;2023-05-10T02:53:11;1.10;;;1.00;;
635;SDS011;302;50.206;8.196;2023-05-10T02:55:40;1.10;;;1.00;;
635;SDS011;302;50.206;8.196;2023-05-10T02:58:06;1.00;;;0.70;;
635;SDS011;302;50.206;8.196;2023-05-10T03:00:31;1.00;;;0.80;;
635;SDS011;302;50.206;8.196;2023-05-10T03:02:56;1.07;;;0.97;;
635;SDS011;302;50.206;8.196;2023-05-10T03:05:21;1.20;;;1.10;;
635;SDS011;302;50.206;8.196;2023-05-10T03:07:46;1.30;;;1.20;;
635;SDS011;302;50.206;8.196;2023-05-10T03:10:12;1.20;;;1.10;;
635;SDS011;302;50.206;8.196;2023-05-10T03:12:49;1.52;;;1.23;;
635;SDS011;302;50.206;8.196;2023-05-10T03:20:24;1.50;;;1.40;;
635;SDS011;302;50.206;8.196;2023-05-10T03:22:55;1.40;;;1.30;;
635;SDS011;302;50.206;8.196;2023-05-10T03:25:21;2.35;;;1.55;;
635;SDS011;302;50.206;8.196;2023-05-10T03:27:47;1.57;;;1.30;;
635;SDS011;302;50.206;8.196;2023-05-10T03:30:12;1.47;;;1.37;;
635;SDS011;302;50.206;8.196;2023-05-10T03:32:38;1.33;;;1.23;;
635;SDS011;302;50.206;8.196;2023-05-10T03:35:07;1.23;;;1.13;;
635;SDS011;302;50.206;8.196;2023-05-10T03:37:33;1.40;;;1.30;;
635;SDS011;302;50.206;8.196;2023-05-10T03:39:58;1.10;;;1.00;;
635;SDS011;302;50.206;8.196;2023-05-10T03:42:23;1.58;;;1.48;;
635;SDS011;302;50.206;8.196;2023-05-10T03:44:48;1.70;;;1.60;;
635;SDS011;302;50.206;8.196;2023-05-10T03:47:14;1.60;;;1.50;;
635;SDS011;302;50.206;8.196;2023-05-10T03:49:40;1.77;;;1.50;;
635;SDS011;302;50.206;8.196;2023-05-10T03:52:05;1.30;;;1.20;;
635;SDS011;302;50.206;8.196;2023-05-10T03:54:30;1.40;;;1.30;;
635;SDS011;302;50.206;8.196;2023-05-10T03:56:55;1.60;;;1.50;;
635;SDS011;302;50.206;8.196;2023-05-10T03:59:20;1.30;;;1.20;;
635;SDS011;302;50.206;8.196;2023-05-10T04:01:46;1.80;;;1.70;;
635;SDS011;302;50.206;8.196;2023-05-10T04:04:11;1.60;;;1.50;;
635;SDS011;302;50.206;8.196;2023-05-10T04:06:37;1.43;;;1.33;;
635;SDS011;302;50.206;8.196;2023-05-10T04:09:02;1.60;;;1.50;;
635;SDS011;302;50.206;8.196;2023-05-10T04:11:29;1.30;;;1.20;;
635;SDS011;302;50.206;8.196;2023-05-10T04:13:54;1.40;;;1.30;;
635;SDS011;302;50.206;8.196;2023-05-10T04:16:19;1.80;;;1.70;;
635;SDS011;302;50.206;8.196;2023-05-10T04:18:44;1.65;;;1.55;;
635;SDS011;302;50.206;8.196;2023-05-10T04:21:13;1.33;;;1.23;;
635;SDS011;302;50.206;8.196;2023-05-10T04:23:38;1.60;;;1.50;;
635;SDS011;302;50.206;8.196;2023-05-10T04:26:03;1.70;;;1.60;;
635;SDS011;302;50.206;8.196;2023-05-10T04:28:29;1.67;;;1.57;;
635;SDS011;302;50.206;8.196;2023-05-10T04:31:00;1.80;;;1.70;;
635;SDS011;302;50.206;8.196;2023-05-10T04:33:25;1.52;;;1.42;;
635;SDS011;302;50.206;8.196;2023-05-10T04:35:50;1.30;;;1.13;;
635;SDS011;302;50.206;8.196;2023-05-10T04:38:15;2.43;;;1.70;;
635;SDS011;302;50.206;8.196;2023-05-10T04:40:40;1.23;;;1.13;;
635;SDS011;302;50.206;8.196;2023-05-10T04:43:06;1.40;;;1.30;;
635;SDS011;302;50.206;8.196;2023-05-10T04:45:31;1.43;;;1.33;;
635;SDS011;302;50.206;8.196;2023-05-10T04:47:56;1.93;;;1.83;;
635;SDS011;302;50.206;8.196;2023-05-10T04:50:21;1.40;;;1.30;;
635;SDS011;302;50.206;8.196;2023-05-10T04:52:46;1.70;;;1.60;;
635;SDS011;302;50.206;8.196;2023-05-10T04:55:12;1.53;;;1.43;;
635;SDS011;302;50.206;8.196;2023-05-10T04:57:37;1.50;;;1.40;;
635;SDS011;302;50.206;8.196;2023-05-10T05:00:02;1.50;;;1.40;;
635;SDS011;302;50.206;8.196;2023-05-10T05:02:27;1.70;;;1.47;;
635;SDS011;302;50.206;8.196;2023-05-10T05:04:53;1.67;;;1.58;;
635;SDS011;302;50.206;8.196;2023-05-10T05:07:18;1.90;;;1.80;;
635;SDS011;302;50.206;8.196;2023-05-10T05:09:43;1.95;;;1.77;;
635;SDS011;302;50.206;8.196;2023-05-10T05:12:08;2.10;;;1.63;;
635;SDS011;302;50.206;8.196;2023-05-10T05:14:38;2.35;;;2.17;;
635;SDS011;302;50.206;8.196;2023-05-10T05:17:03;2.95;;;2.75;;
635;SDS011;302;50.206;8.196;2023-05-10T05:19:30;2.33;;;1.88;;
635;SDS011;302;50.206;8.196;2023-05-10T05:21:55;3.55;;;1.75;;
635;SDS011;302;50.206;8.196;2023-05-10T05:24:21;1.73;;;1.63;;
635;SDS011;302;50.206;8.196;2023-05-10T05:26:46;5.10;;;1.90;;
635;SDS011;302;50.206;8.196;2023-05-10T05:29:12;1.70;;;1.60;;
635;SDS011;302;50.206;8.196;2023-05-10T05:31:37;2.00;;;1.90;;
635;SDS011;302;50.206;8.196;2023-05-10T05:34:02;1.93;;;1.83;;
635;SDS011;302;50.206;8.196;2023-05-10T05:36:27;2.35;;;2.15;;
635;SDS011;302;50.206;8.196;2023-05-10T05:38:52;1.85;;;1.75;;
635;SDS011;302;50.206;8.196;2023-05-10T05:41:17;3.15;;;1.75;;
635;SDS011;302;50.206;8.196;2023-05-10T05:43:42;1.80;;;1.70;;
635;SDS011;302;50.206;8.196;2023-05-10T05:46:08;2.35;;;2.10;;
635;SDS011;302;50.206;8.196;2023-05-10T05:48:33;1.90;;;1.77;;
635;SDS011;302;50.206;8.196;2023-05-10T05:50:58;1.70;;;1.60;;
635;SDS011;302;50.206;8.196;2023-05-10T05:53:23;1.80;;;1.70;;
635;SDS011;302;50.206;8.196;2023-05-10T05:55:54;1.70;;;1.60;;
635;SDS011;302;50.206;8.196;2023-05-10T05:58:21;2.05;;;1.95;;
635;SDS011;302;50.206;8.196;2023-05-10T06:00:46;1.80;;;1.50;;
635;SDS011;302;50.206;8.196;2023-05-10T06:03:11;1.37;;;1.27;;
635;SDS011;302;50.206;8.196;2023-05-10T06:05:36;2.10;;;2.00;;
635;SDS011;302;50.206;8.196;2023-05-10T06:08:01;1.60;;;1.50;;
635;SDS011;302;50.206;8.196;2023-05-10T06:10:27;1.73;;;1.63;;
635;SDS011;302;50.206;8.196;2023-05-10T06:12:52;1.80;;;1.70;;
635;SDS011;302;50.206;8.196;2023-05-10T06:15:18;1.70;;;1.60;;
635;SDS011;302;50.206;8.196;2023-05-10T06:17:43;1.70;;;1.60;;
635;SDS011;302;50.206;8.196;2023-05-10T06:20:09;2.10;;;1.83;;
635;SDS011;302;50.206;8.196;2023-05-10T06:22:34;2.53;;;1.83;;
635;SDS011;302;50.206;8.196;2023-05-10T06:24:59;1.50;;;1.40;;
635;SDS011;302;50.206;8.196;2023-05-10T06:27:25;1.40;;;1.30;;
635;SDS011;302;50.206;8.196;2023-05-10T06:29:50;1.60;;;1.50;;
635;SDS011;302;50.206;8.196;2023-05-10T06:32:15;1.90;;;1.45;;
635;SDS011;302;50.206;8.196;2023-05-10T06:34:41;1.70;;;1.60;;
635;SDS011;302;50.206;8.196;2023-05-10T06:37:08;1.70;;;1.60;;
635;SDS011;302;50.206;8.196;2023-05-10T06:39:36;1.90;;;1.80;;
635;SDS011;302;50.206;8.196;2023-05-10T06:42:01;2.00;;;1.77;;
635;SDS011;302;50.206;8.196;2023-05-10T06:44:28;2.17;;;1.98;;
635;SDS011;302;50.206;8.196;2023-05-10T06:46:53;1.52;;;1.42;;
635;SDS011;302;50.206;8.196;2023-05-10T06:49:20;2.05;;;1.70;;
635;SDS011;302;50.206;8.196;2023-05-10T06:51:45;2.00;;;1.90;;
635;SDS011;302;50.206;8.196;2023-05-10T06:54:10;2.13;;;1.93;;
635;SDS011;302;50.206;8.196;2023-05-10T06:56:35;1.80;;;1.70;;
635;SDS011;302;50.206;8.196;2023-05-10T06:59:00;1.73;;;1.60;;
635;SDS011;302;50.206;8.196;2023-05-10T07:01:25;1.83;;;1.73;;
635;SDS011;302;50.206;8.196;2023-05-10T07:03:51;1.77;;;1.67;;
635;SDS011;302;50.206;8.196;2023-05-10T07:06:16;1.80;;;1.70;;
635;SDS011;302;50.206;8.196;2023-05-10T07:08:41;2.00;;;1.65;;
635;SDS011;302;50.206;8.196;2023-05-10T07:11:06;1.80;;;1.70;;
635;SDS011;302;50.206;8.196;2023-05-10T07:13:35;1.92;;;1.70;;
635;SDS011;302;50.206;8.196;2023-05-10T07:16:01;1.90;;;1.80;;
635;SDS011;302;50.206;8.196;2023-05-10T07:18:26;3.70;;;3.50;;
635;SDS011;302;50.206;8.196;2023-05-10T07:20:52;2.33;;;2.23;;
635;SDS011;302;50.206;8.196;2023-05-10T07:23:17;1.63;;;1.53;;
635;SDS011;302;50.206;8.196;2023-05-10T07:25:44;2.13;;;1.60;;
635;SDS011;302;50.206;8.196;2023-05-10T07:28:09;1.90;;;1.80;;
635;SDS011;302;50.206;8.196;2023-05-10T07:30:34;2.72;;;1.83;;
635;SDS011;302;50.206;8.196;2023-05-10T07:33:00;2.25;;;2.05;;
635;SDS011;302;50.206;8.196;2023-05-10T07:35:25;2.50;;;2.30;;
635;SDS011;302;50.206;8.196;2023-05-10T07:37:50;1.95;;;1.85;;
635;SDS011;302;50.206;8.196;2023-05-10T07:40:15;2.30;;;2.10;;
635;SDS011;302;50.206;8.196;2023-05-10T07:42:40;2.77;;;2.50;;
635;SDS011;302;50.206;8.196;2023-05-10T07:45:06;1.80;;;1.70;;
635;SDS011;302;50.206;8.196;2023-05-10T07:47:31;2.57;;;2.37;;
635;SDS011;302;50.206;8.196;2023-05-10T07:49:56;2.40;;;2.30;;
635;SDS011;302;50.206;8.196;2023-05-10T07:52:21;2.43;;;2.23;;
635;SDS011;302;50.206;8.196;2023-05-10T07:54:46;2.45;;;2.25;;
635;SDS011;302;50.206;8.196;2023-05-10T07:57:12;3.23;;;2.90;;
635;SDS011;302;50.206;8.196;2023-05-10T07:59:39;2.42;;;2.22;;
635;SDS011;302;50.206;8.196;2023-05-10T08:02:04;2.57;;;2.37;;
635;SDS011;302;50.206;8.196;2023-05-10T08:04:30;2.33;;;2.13;;
635;SDS011;302;50.206;8.196;2023-05-10T08:06:55;2.60;;;2.38;;
635;SDS011;302;50.206;8.196;2023-05-10T08:09:20;2.30;;;2.10;;
635;SDS011;302;50.206;8.196;2023-05-10T08:11:48;2.05;;;1.85;;
635;SDS011;302;50.206;8.196;2023-05-10T08:14:13;2.23;;;2.03;;
635;SDS011;302;50.206;8.196;2023-05-10T08:16:38;1.93;;;1.70;;
635;SDS011;302;50.206;8.196;2023-05-10T08:19:04;3.05;;;2.15;;
635;SDS011;302;50.206;8.196;2023-05-10T08:21:29;1.97;;;1.80;;
635;SDS011;302;50.206;8.196;2023-05-10T08:23:56;2.63;;;1.85;;
635;SDS011;302;50.206;8.196;2023-05-10T08:26:21;2.50;;;2.23;;
635;SDS011;302;50.206;8.196;2023-05-10T08:28:46;2.50;;;2.30;;
635;SDS011;302;50.206;8.196;2023-05-10T08:31:11;1.85;;;1.75;;
635;SDS011;302;50.206;8.196;2023-05-10T08:33:36;2.40;;;2.20;;
635;SDS011;302;50.206;8.196;2023-05-10T08:36:02;2.05;;;1.75;;
635;SDS011;302;50.206;8.196;2023-05-10T08:38:27;2.27;;;1.70;;
635;SDS011;302;50.206;8.196;2023-05-10T08:40:53;2.30;;;2.10;;
635;SDS011;302;50.206;8.196;2023-05-10T08:43:21;1.77;;;1.55;;
635;SDS011;302;50.206;8.196;2023-05-10T08:45:46;3.20;;;1.90;;
635;SDS011;302;50.206;8.196;2023-05-10T08:48:13;1.90;;;1.80;;
635;SDS011;302;50.206;8.196;2023-05-10T08:50:39;1.80;;;1.70;;
635;SDS011;302;50.206;8.196;2023-05-10T08:53:06;2.70;;;2.50;;
635;SDS011;302;50.206;8.196;2023-05-10T08:55:32;1.70;;;1.60;;
635;SDS011;302;50.206;8.196;2023-05-10T08:57:58;3.22;;;2.10;;
635;SDS011;302;50.206;8.196;2023-05-10T09:00:23;1.80;;;1.70;;
635;SDS011;302;50.206;8.196;2023-05-10T09:02:49;2.37;;;2.17;;
635;SDS011;302;50.206;8.196;2023-05-10T09:05:15;1.98;;;1.88;;
635;SDS011;302;50.206;8.196;2023-05-10T09:07:41;2.30;;;2.10;;
635;SDS011;302;50.206;8.196;2023-05-10T09:10:06;2.33;;;2.13;;
635;SDS011;302;50.206;8.196;2023-05-10T09:12:31;2.03;;;1.70;;
635;SDS011;302;50.206;8.196;2023-05-10T09:14:57;2.43;;;2.13;;
635;SDS011;302;50.206;8.196;2023-05-10T09:17:24;1.95;;;1.85;;
635;SDS011;302;50.206;8.196;2023-05-10T09:19:50;1.50;;;1.40;;
635;SDS011;302;50.206;8.196;2023-05-10T09:22:21;1.80;;;1.70;;
635;SDS011;302;50.206;8.196;2023-05-10T09:24:47;2.13;;;2.03;;
635;SDS011;302;50.206;8.196;2023-05-10T09:27:12;1.60;;;1.50;;
635;SDS011;302;50.206;8.196;2023-05-10T09:29:42;1.80;;;1.70;;
635;SDS011;302;50.206;8.196;2023-05-10T09:32:07;1.30;;;1.20;;
635;SDS011;302;50.206;8.196;2023-05-10T09:34:32;2.07;;;1.93;;
635;SDS011;302;50.206;8.196;2023-05-10T09:37:00;1.50;;;1.20;;
635;SDS011;302;50.206;8.196;2023-05-10T09:39:33;1.60;;;1.10;;
635;SDS011;302;50.206;8.196;2023-05-10T09:41:59;1.10;;;1.00;;
635;SDS011;302;50.206;8.196;2023-05-10T09:44:26;0.90;;;0.80;;
635;SDS011;302;50.206;8.196;2023-05-10T09:46:51;1.20;;;1.00;;
635;SDS011;302;50.206;8.196;2023-05-10T09:49:17;1.85;;;1.02;;
635;SDS011;302;50.206;8.196;2023-05-10T09:51:43;1.60;;;1.00;;
635;SDS011;302;50.206;8.196;2023-05-10T09:54:11;1.30;;;1.20;;
635;SDS011;302;50.206;8.196;2023-05-10T09:56:37;1.20;;;1.00;;
635;SDS011;302;50.206;8.196;2023-05-10T09:59:04;1.10;;;1.00;;
635;SDS011;302;50.206;8.196;2023-05-10T10:01:29;1.10;;;0.50;;
635;SDS011;302;50.206;8.196;2023-05-10T10:03:55;1.00;;;0.85;;
635;SDS011;302;50.206;8.196;2023-05-10T10:06:22;1.27;;;1.17;;
635;SDS011;302;50.206;8.196;2023-05-10T10:08:48;1.20;;;1.10;;
635;SDS011;302;50.206;8.196;2023-05-10T10:11:13;1.97;;;1.30;;
635;SDS011;302;50.206;8.196;2023-05-10T10:13:38;1.70;;;1.00;;
635;SDS011;302;50.206;8.196;2023-05-10T10:16:04;1.40;;;1.00;;
635;SDS011;302;50.206;8.196;2023-05-10T10:18:30;0.93;;;0.70;;
635;SDS011;302;50.206;8.196;2023-05-10T10:20:55;1.42;;;0.90;;
635;SDS011;302;50.206;8.196;2023-05-10T10:23:20;1.50;;;0.90;;
635;SDS011;302;50.206;8.196;2023-05-10T10:25:45;1.05;;;0.95;;
635;SDS011;302;50.206;8.196;2023-05-10T10:28:24;1.10;;;1.00;;
635;SDS011;302;50.206;8.196;2023-05-10T10:30:51;1.00;;;0.90;;
635;SDS011;302;50.206;8.196;2023-05-10T10:35:49;1.00;;;0.88;;
635;SDS011;302;50.206;8.196;2023-05-10T10:38:14;1.00;;;0.90;;
635;SDS011;302;50.206;8.196;2023-05-10T10:40:39;1.45;;;0.93;;
635;SDS011;302;50.206;8.196;2023-05-10T10:43:24;1.40;;;1.00;;
635;SDS011;302;50.206;8.196;2023-05-10T10:48:34;0.98;;;0.80;;
635;SDS011;302;50.206;8.196;2023-05-10T10:50:59;0.90;;;0.70;;
635;SDS011;302;50.206;8.196;2023-05-10T10:53:28;2.07;;;0.83;;
635;SDS011;302;50.206;8.196;2023-05-10T10:56:06;1.10;;;0.98;;
635;SDS011;302;50.206;8.196;2023-05-10T10:58:33;1.85;;;1.00;;
635;SDS011;302;50.206;8.196;2023-05-10T11:01:17;1.03;;;0.83;;
635;SDS011;302;50.206;8.196;2023-05-10T11:06:32;0.90;;;0.70;;
635;SDS011;302;50.206;8.196;2023-05-10T11:08:57;0.90;;;0.60;;
635;SDS011;302;50.206;8.196;2023-05-10T11:11:22;1.53;;;0.77;;
635;SDS011;302;50.206;8.196;2023-05-10T11:13:48;1.63;;;0.80;;
635;SDS011;302;50.206;8.196;2023-05-10T11:16:23;1.00;;;0.80;;
635;SDS011;302;50.206;8.196;2023-05-10T11:21:18;1.20;;;0.80;;
635;SDS011;302;50.206;8.196;2023-05-10T11:26:08;1.48;;;0.60;;
635;SDS011;302;50.206;8.196;2023-05-10T11:28:43;1.00;;;0.73;;
635;SDS011;302;50.206;8.196;2023-05-10T11:31:08;1.05;;;0.95;;
635;SDS011;302;50.206;8.196;2023-05-10T11:33:43;1.93;;;0.80;;
635;SDS011;302;50.206;8.196;2023-05-10T11:36:14;0.90;;;0.60;;
635;SDS011;302;50.206;8.196;2023-05-10T11:38:39;0.90;;;0.60;;
635;SDS011;302;50.206;8.196;2023-05-10T11:41:04;0.90;;;0.60;;
635;SDS011;302;50.206;8.196;2023-05-10T11:43:29;1.10;;;0.90;;
635;SDS011;302;50.206;8.196;2023-05-10T11:45:55;1.00;;;0.70;;
635;SDS011;302;50.206;8.196;2023-05-10T11:48:20;0.90;;;0.60;;
635;SDS011;302;50.206;8.196;2023-05-10T11:50:48;0.90;;;0.60;;
635;SDS011;302;50.206;8.196;2023-05-10T11:53:13;0.90;;;0.73;;
635;SDS011;302;50.206;8.196;2023-05-10T11:55:39;1.00;;;0.70;;
635;SDS011;302;50.206;8.196;2023-05-10T11:58:04;1.67;;;0.60;;
635;SDS011;302;50.206;8.196;2023-05-10T12:00:30;0.90;;;0.60;;
635;SDS011;302;50.206;8.196;2023-05-10T12:02:55;0.90;;;0.60;;
635;SDS011;302;50.206;8.196;2023-05-10T12:05:20;0.87;;;0.50;;
635;SDS011;302;50.206;8.196;2023-05-10T12:07:45;0.97;;;0.70;;
635;SDS011;302;50.206;8.196;2023-05-10T12:10:12;1.10;;;0.70;;
635;SDS011;302;50.206;8.196;2023-05-10T12:12:46;1.10;;;0.63;;
635;SDS011;302;50.206;8.196;2023-05-10T12:15:18;0.90;;;0.57;;
635;SDS011;302;50.206;8.196;2023-05-10T12:17:44;0.90;;;0.60;;
635;SDS011;302;50.206;8.196;2023-05-10T12:20:28;0.90;;;0.60;;
635;SDS011;302;50.206;8.196;2023-05-10T12:22:54;0.90;;;0.67;;
635;SDS011;302;50.206;8.196;2023-05-10T12:25:20;1.17;;;0.53;;
635;SDS011;302;50.206;8.196;2023-05-10T12:27:52;0.90;;;0.60;;
635;SDS011;302;50.206;8.196;2023-05-10T12:30:23;0.90;;;0.60;;
635;SDS011;302;50.206;8.196;2023-05-10T12:32:49;3.23;;;0.90;;
635;SDS011;302;50.206;8.196;2023-05-10T12:35:14;1.03;;;0.60;;
635;SDS011;302;50.206;8.196;2023-05-10T12:37:41;1.53;;;1.33;;
635;SDS011;302;50.206;8.196;2023-05-10T12:40:06;0.90;;;0.50;;
635;SDS011;302;50.206;8.196;2023-05-10T12:42:33;1.90;;;0.70;;
635;SDS011;302;50.206;8.196;2023-05-10T12:44:58;2.90;;;0.70;;
635;SDS011;302;50.206;8.196;2023-05-10T12:47:23;0.98;;;0.75;;
635;SDS011;302;50.206;8.196;2023-05-10T12:49:48;0.90;;;0.55;;
635;SDS011;302;50.206;8.196;2023-05-10T12:52:13;1.00;;;0.60;;
635;SDS011;302;50.206;8.196;2023-05-10T12:54:38;0.90;;;0.60;;
635;SDS011;302;50.206;8.196;2023-05-10T12:57:04;0.90;;;0.60;;
635;SDS011;302;50.206;8.196;2023-05-10T12:59:29;1.40;;;1.00;;
635;SDS011;302;50.206;8.196;2023-05-10T13:01:54;1.00;;;0.70;;
635;SDS011;302;50.206;8.196;2023-05-10T13:04:19;0.97;;;0.60;;
635;SDS011;302;50.206;8.196;2023-05-10T13:06:45;1.00;;;0.80;;
635;SDS011;302;50.206;8.196;2023-05-10T13:09:10;1.00;;;0.80;;
635;SDS011;302;50.206;8.196;2023-05-10T13:11:35;1.40;;;1.02;;
635;SDS011;302;50.206;8.196;2023-05-10T13:14:00;1.00;;;0.90;;
635;SDS011;302;50.206;8.196;2023-05-10T13:16:25;1.00;;;0.80;;
635;SDS011;302;50.206;8.196;2023-05-10T13:18:51;0.90;;;0.70;;
635;SDS011;302;50.206;8.196;2023-05-10T13:21:16;1.10;;;1.00;;
635;SDS011;302;50.206;8.196;2023-05-10T13:23:41;1.23;;;0.90;;
635;SDS011;302;50.206;8.196;2023-05-10T13:26:06;1.83;;;0.93;;
635;SDS011;302;50.206;8.196;2023-05-10T13:28:31;1.00;;;0.83;;
635;SDS011;302;50.206;8.196;2023-05-10T13:30:57;1.00;;;0.90;;
635;SDS011;302;50.206;8.196;2023-05-10T13:33:22;1.00;;;0.80;;
635;SDS011;302;50.206;8.196;2023-05-10T13:35:47;1.50;;;1.00;;
635;SDS011;302;50.206;8.196;2023-05-10T13:38:12;1.10;;;0.98;;
635;SDS011;302;50.206;8.196;2023-05-10T13:40:38;1.07;;;0.97;;
635;SDS011;302;50.206;8.196;2023-05-10T13:43:03;1.70;;;1.00;;
635;SDS011;302;50.206;8.196;2023-05-10T13:45:28;1.00;;;0.80;;
635;SDS011;302;50.206;8.196;2023-05-10T13:47:54;1.30;;;0.80;;
635;SDS011;302;50.206;8.196;2023-05-10T13:50:19;1.17;;;1.08;;
635;SDS011;302;50.206;8.196;2023-05-10T13:52:44;1.10;;;0.90;;
635;SDS011;302;50.206;8.196;2023-05-10T13:55:09;1.17;;;0.63;;
635;SDS011;302;50.206;8.196;2023-05-10T13:57:37;1.00;;;0.70;;
635;SDS011;302;50.206;8.196;2023-05-10T14:00:02;1.00;;;0.70;;
635;SDS011;302;50.206;8.196;2023-05-10T14:02:28;1.00;;;0.73;;
635;SDS011;302;50.206;8.196;2023-05-10T14:04:53;1.00;;;0.80;;
635;SDS011;302;50.206;8.196;2023-05-10T14:07:18;1.00;;;0.73;;
635;SDS011;302;50.206;8.196;2023-05-10T14:09:44;0.90;;;0.60;;
635;SDS011;302;50.206;8.196;2023-05-10T14:12:09;1.00;;;0.90;;
635;SDS011;302;50.206;8.196;2023-05-10T14:14:34;1.97;;;1.23;;
635;SDS011;302;50.206;8.196;2023-05-10T14:16:59;1.17;;;1.07;;
635;SDS011;302;50.206;8.196;2023-05-10T14:19:25;1.00;;;0.70;;
635;SDS011;302;50.206;8.196;2023-05-10T14:21:51;1.00;;;0.67;;
635;SDS011;302;50.206;8.196;2023-05-10T14:24:16;0.90;;;0.60;;
635;SDS011;302;50.206;8.196;2023-05-10T14:26:42;3.70;;;0.70;;
635;SDS011;302;50.206;8.196;2023-05-10T14:29:07;1.40;;;0.90;;
635;SDS011;302;50.206;8.196;2023-05-10T14:31:32;1.83;;;0.90;;
635;SDS011;302;50.206;8.196;2023-05-10T14:33:57;1.20;;;1.00;;
635;SDS011;302;50.206;8.196;2023-05-10T14:36:25;1.50;;;0.90;;
635;SDS011;302;50.206;8.196;2023-05-10T14:38:50;1.20;;;1.00;;
635;SDS011;302;50.206;8.196;2023-05-10T14:41:15;1.37;;;0.87;;
635;SDS011;302;50.206;8.196;2023-05-10T14:43:42;1.50;;;0.90;;
635;SDS011;302;50.206;8.196;2023-05-10T14:46:07;1.10;;;0.90;;
635;SDS011;302;50.206;8.196;2023-05-10T14:48:33;1.00;;;0.60;;
635;SDS011;302;50.206;8.196;2023-05-10T14:50:58;2.03;;;0.70;;
635;SDS011;302;50.206;8.196;2023-05-10T14:53:23;1.80;;;1.00;;
635;SDS011;302;50.206;8.196;2023-05-10T14:55:49;1.00;;;0.80;;
635;SDS011;302;50.206;8.196;2023-05-10T14:58:14;2.13;;;1.07;;
635;SDS011;302;50.206;8.196;2023-05-10T15:00:40;1.10;;;0.60;;
635;SDS011;302;50.206;8.196;2023-05-10T15:03:05;1.00;;;0.80;;
635;SDS011;302;50.206;8.196;2023-05-10T15:05:30;1.10;;;0.90;;
635;SDS011;302;50.206;8.196;2023-05-10T15:07:55;1.77;;;0.97;;
635;SDS011;302;50.206;8.196;2023-05-10T15:10:20;1.00;;;0.80;;
635;SDS011;302;50.206;8.196;2023-05-10T15:12:46;0.97;;;0.70;;
635;SDS011;302;50.206;8.196;2023-05-10T15:15:11;1.00;;;0.80;;
635;SDS011;302;50.206;8.196;2023-05-10T15:17:36;1.88;;;0.90;;
635;SDS011;302;50.206;8.196;2023-05-10T15:20:01;1.00;;;0.90;;
635;SDS011;302;50.206;8.196;2023-05-10T15:22:28;1.00;;;0.80;;
635;SDS011;302;50.206;8.196;2023-05-10T15:24:53;2.20;;;1.20;;
635;SDS011;302;50.206;8.196;2023-05-10T15:27:18;3.53;;;1.10;;
635;SDS011;302;50.206;8.196;2023-05-10T15:29:43;1.20;;;0.83;;
635;SDS011;302;50.206;8.196;2023-05-10T15:32:08;1.20;;;1.10;;
635;SDS011;302;50.206;8.196;2023-05-10T15:34:33;1.35;;;0.85;;
635;SDS011;302;50.206;8.196;2023-05-10T15:36:59;1.13;;;0.97;;
635;SDS011;302;50.206;8.196;2023-05-10T15:39:24;1.10;;;0.85;;
635;SDS011;302;50.206;8.196;2023-05-10T15:41:50;1.20;;;0.80;;
635;SDS011;302;50.206;8.196;2023-05-10T15:44:15;1.00;;;0.80;;
635;SDS011;302;50.206;8.196;2023-05-10T15:46:41;0.90;;;0.60;;
635;SDS011;302;50.206;8.196;2023-05-10T15:49:06;1.00;;;0.82;;
635;SDS011;302;50.206;8.196;2023-05-10T15:51:32;1.00;;;0.70;;
635;SDS011;302;50.206;8.196;2023-05-10T15:53:59;2.70;;;1.00;;
635;SDS011;302;50.206;8.196;2023-05-10T15:56:26;1.70;;;0.90;;
635;SDS011;302;50.206;8.196;2023-05-10T15:58:51;1.00;;;0.80;;
635;SDS011;302;50.206;8.196;2023-05-10T16:01:16;1.13;;;0.90;;
635;SDS011;302;50.206;8.196;2023-05-10T16:03:42;1.00;;;0.90;;